Time;durP1;ratioP1;P1;durP2;ratioP2;P2;SDS_P1;SDS_P2;PMS_P1;PMS_P2;Temp;Humidity;BMP_temperature;BMP_pressure;BME280_temperature;BME280_humidity;BME280_pressure;Samples;Min_cycle;Max_cycle;Signal;HPM_P1;HPM_P2
2021/07/23 00:01:34;;;;;;;9.57;7.50;;;;;;;;;;4933603;29;20467;-75
2021/07/23 00:04:02;;;;;;;7.90;7.10;;;;;;;;;;4935474;29;20450;-75
2021/07/23 00:06:29;;;;;;;8.93;7.23;;;;;;;;;;4929314;29;20813;-77
2021/07/23 00:08:57;;;;;;;8.53;7.60;;;;;;;;;;4930728;29;20485;-76
2021/07/23 00:11:24;;;;;;;10.13;7.30;;;;;;;;;;4934487;29;20478;-75
2021/07/23 00:13:51;;;;;;;11.00;8.20;;;;;;;;;;4923457;29;20837;-74
2021/07/23 00:16:19;;;;;;;8.33;7.37;;;;;;;;;;4919365;29;20957;-76
2021/07/23 00:18:46;;;;;;;9.63;7.63;;;;;;;;;;4928706;29;20478;-75
2021/07/23 00:21:13;;;;;;;8.60;7.43;;;;;;;;;;4930234;29;20465;-75
2021/07/23 00:23:40;;;;;;;13.73;7.90;;;;;;;;;;4932964;29;20431;-74
2021/07/23 00:26:12;;;;;;;8.10;7.27;;;;;;;;;;4932522;29;20462;-76
2021/07/23 00:28:39;;;;;;;9.80;8.17;;;;;;;;;;4934989;29;20948;-76
2021/07/23 00:31:07;;;;;;;7.70;6.83;;;;;;;;;;4933294;29;20500;-75
2021/07/23 00:33:34;;;;;;;9.10;7.20;;;;;;;;;;4930405;29;20478;-76
2021/07/23 00:36:01;;;;;;;8.70;6.67;;;;;;;;;;4933691;29;20449;-75
2021/07/23 00:38:28;;;;;;;8.70;7.80;;;;;;;;;;4930173;29;20513;-76
2021/07/23 00:40:55;;;;;;;10.03;7.13;;;;;;;;;;4932491;29;20988;-75
2021/07/23 00:43:24;;;;;;;11.77;7.60;;;;;;;;;;4934031;29;20461;-76
2021/07/23 00:45:51;;;;;;;8.63;6.73;;;;;;;;;;4932763;29;20473;-76
2021/07/23 00:48:18;;;;;;;8.20;6.83;;;;;;;;;;4925550;29;20489;-75
2021/07/23 00:50:46;;;;;;;11.03;7.20;;;;;;;;;;4939439;28;20478;-75
2021/07/23 00:53:13;;;;;;;8.87;6.83;;;;;;;;;;4931824;29;20446;-75
2021/07/23 00:55:41;;;;;;;8.43;6.60;;;;;;;;;;4933972;29;20461;-76
2021/07/23 00:58:09;;;;;;;9.30;7.00;;;;;;;;;;4929428;29;21021;-76
2021/07/23 01:00:39;;;;;;;8.50;7.37;;;;;;;;;;4934397;29;20549;-76
2021/07/23 01:03:07;;;;;;;7.70;6.90;;;;;;;;;;4928513;29;20471;-75
2021/07/23 01:05:36;;;;;;;9.30;7.07;;;;;;;;;;4927972;29;20952;-75
2021/07/23 01:08:04;;;;;;;8.40;7.30;;;;;;;;;;4933363;29;20461;-77
2021/07/23 01:10:31;;;;;;;9.43;7.23;;;;;;;;;;4927378;29;20827;-75
2021/07/23 01:13:00;;;;;;;9.50;7.87;;;;;;;;;;4926802;29;20471;-76
2021/07/23 01:15:28;;;;;;;8.83;6.43;;;;;;;;;;4915565;29;20447;-75
2021/07/23 01:17:56;;;;;;;7.07;6.07;;;;;;;;;;4939134;28;20997;-75
2021/07/23 01:20:25;;;;;;;7.80;6.43;;;;;;;;;;4923712;29;20454;-75
2021/07/23 01:22:54;;;;;;;9.50;6.13;;;;;;;;;;4931708;29;20540;-76
2021/07/23 01:25:23;;;;;;;8.40;7.40;;;;;;;;;;4911703;29;20804;-76
2021/07/23 01:27:51;;;;;;;10.50;7.10;;;;;;;;;;4931496;29;20469;-75
2021/07/23 01:30:19;;;;;;;9.27;6.17;;;;;;;;;;4932886;29;20453;-76
2021/07/23 01:32:46;;;;;;;9.47;7.37;;;;;;;;;;4932787;29;20821;-75
2021/07/23 01:35:13;;;;;;;7.97;6.87;;;;;;;;;;4934176;29;20462;-75
2021/07/23 01:37:40;;;;;;;8.73;7.70;;;;;;;;;;4924620;29;20486;-75
2021/07/23 01:40:08;;;;;;;8.43;7.30;;;;;;;;;;4931678;29;20492;-75
2021/07/23 01:42:38;;;;;;;9.00;7.60;;;;;;;;;;4917634;29;20465;-75
2021/07/23 01:45:06;;;;;;;8.40;6.27;;;;;;;;;;4918979;29;20939;-76
2021/07/23 01:47:33;;;;;;;9.40;7.47;;;;;;;;;;4934831;29;20818;-76
2021/07/23 01:50:00;;;;;;;8.80;7.00;;;;;;;;;;4929713;29;20467;-77
2021/07/23 01:52:29;;;;;;;9.17;6.63;;;;;;;;;;4932660;29;20481;-75
2021/07/23 01:54:56;;;;;;;8.97;7.00;;;;;;;;;;4914753;29;20444;-76
2021/07/23 01:57:23;;;;;;;8.83;7.43;;;;;;;;;;4933314;29;20942;-75
2021/07/23 01:59:52;;;;;;;10.00;7.93;;;;;;;;;;4928233;29;20466;-76
2021/07/23 02:02:19;;;;;;;8.10;6.90;;;;;;;;;;4931866;29;20437;-74
2021/07/23 02:04:46;;;;;;;7.87;6.87;;;;;;;;;;4930371;29;20789;-75
2021/07/23 02:07:13;;;;;;;8.50;6.80;;;;;;;;;;4931476;29;20455;-75
2021/07/23 02:09:40;;;;;;;11.13;6.63;;;;;;;;;;4933354;29;20433;-75
2021/07/23 02:12:09;;;;;;;8.30;7.17;;;;;;;;;;4922311;29;20492;-75
2021/07/23 02:14:36;;;;;;;9.83;7.47;;;;;;;;;;4914800;29;20440;-76
2021/07/23 02:17:04;;;;;;;7.30;6.00;;;;;;;;;;4932776;28;20481;-75
2021/07/23 02:19:32;;;;;;;9.17;6.70;;;;;;;;;;4928268;29;20452;-76
2021/07/23 02:21:59;;;;;;;8.30;6.90;;;;;;;;;;4929864;29;20484;-76
2021/07/23 02:24:26;;;;;;;8.90;7.17;;;;;;;;;;4928814;29;20460;-76
2021/07/23 02:26:54;;;;;;;8.90;6.50;;;;;;;;;;4930909;29;20474;-76
2021/07/23 02:29:21;;;;;;;9.17;7.67;;;;;;;;;;4929480;29;20831;-75
2021/07/23 02:31:48;;;;;;;8.93;7.13;;;;;;;;;;4928190;29;20484;-77
2021/07/23 02:34:17;;;;;;;8.43;7.17;;;;;;;;;;4930966;29;20451;-77
2021/07/23 02:36:44;;;;;;;9.77;7.70;;;;;;;;;;4924497;29;20970;-77
2021/07/23 02:39:11;;;;;;;11.00;7.53;;;;;;;;;;4913626;29;20451;-77
2021/07/23 02:41:38;;;;;;;9.87;8.10;;;;;;;;;;4929016;29;20439;-77
2021/07/23 02:44:06;;;;;;;7.43;6.60;;;;;;;;;;4933236;29;20932;-76
2021/07/23 02:46:33;;;;;;;8.47;6.60;;;;;;;;;;4908730;29;20819;-77
2021/07/23 02:49:00;;;;;;;9.03;7.70;;;;;;;;;;4926068;29;21147;-77
2021/07/23 02:51:29;;;;;;;9.37;7.00;;;;;;;;;;4915531;29;20469;-78
2021/07/23 02:53:56;;;;;;;10.53;7.40;;;;;;;;;;4930789;29;20464;-78
2021/07/23 02:56:23;;;;;;;9.67;6.87;;;;;;;;;;4932914;29;20417;-78
2021/07/23 02:58:50;;;;;;;10.03;7.57;;;;;;;;;;4925019;29;20469;-77
2021/07/23 03:01:17;;;;;;;7.40;6.70;;;;;;;;;;4926407;29;20479;-77
2021/07/23 03:03:45;;;;;;;10.40;6.90;;;;;;;;;;4925250;29;20425;-77
2021/07/23 03:06:12;;;;;;;8.90;7.33;;;;;;;;;;4933419;29;20453;-78
2021/07/23 03:08:40;;;;;;;8.00;7.10;;;;;;;;;;4934806;29;20440;-77
2021/07/23 03:11:07;;;;;;;9.17;8.00;;;;;;;;;;4935262;29;20470;-78
2021/07/23 03:13:35;;;;;;;8.37;6.53;;;;;;;;;;4943397;28;20475;-77
2021/07/23 03:16:02;;;;;;;8.43;6.83;;;;;;;;;;4929496;28;20486;-77
2021/07/23 03:18:29;;;;;;;10.27;8.30;;;;;;;;;;4919361;29;20967;-77
2021/07/23 03:20:56;;;;;;;9.73;6.47;;;;;;;;;;4926992;29;20433;-77
2021/07/23 03:23:24;;;;;;;6.97;6.20;;;;;;;;;;4930537;29;20458;-78
2021/07/23 03:25:52;;;;;;;8.90;7.13;;;;;;;;;;4934828;29;20801;-77
2021/07/23 03:28:19;;;;;;;8.13;7.23;;;;;;;;;;4930525;29;20462;-78
2021/07/23 03:30:46;;;;;;;8.53;6.93;;;;;;;;;;4917374;29;20449;-78
2021/07/23 03:33:14;;;;;;;8.13;6.67;;;;;;;;;;4917281;29;20498;-77
2021/07/23 03:35:41;;;;;;;7.80;6.97;;;;;;;;;;4935185;29;20433;-77
2021/07/23 03:38:08;;;;;;;8.90;7.20;;;;;;;;;;4938656;29;20437;-77
2021/07/23 03:40:35;;;;;;;12.30;6.90;;;;;;;;;;4931770;29;20478;-77
2021/07/23 03:43:04;;;;;;;8.03;6.97;;;;;;;;;;4938368;29;20446;-77
2021/07/23 03:45:31;;;;;;;11.53;7.77;;;;;;;;;;4933852;29;20469;-78
2021/07/23 03:47:58;;;;;;;9.57;6.90;;;;;;;;;;4934907;29;20476;-77
2021/07/23 03:50:25;;;;;;;8.40;6.80;;;;;;;;;;4934035;29;20458;-77
2021/07/23 03:52:52;;;;;;;7.53;6.50;;;;;;;;;;4918544;29;20454;-78
2021/07/23 03:55:19;;;;;;;8.00;6.33;;;;;;;;;;4917094;29;20447;-78
2021/07/23 03:57:47;;;;;;;8.00;7.20;;;;;;;;;;4930680;29;20478;-77
2021/07/23 04:00:16;;;;;;;8.67;6.80;;;;;;;;;;4937823;29;20425;-78
2021/07/23 04:02:44;;;;;;;9.30;7.17;;;;;;;;;;4931129;29;21458;-77
2021/07/23 04:05:11;;;;;;;7.43;6.70;;;;;;;;;;4929640;29;20934;-77
2021/07/23 04:07:38;;;;;;;8.47;7.23;;;;;;;;;;4934135;29;20444;-77
2021/07/23 04:10:06;;;;;;;11.27;7.17;;;;;;;;;;4933679;29;21560;-77
2021/07/23 04:12:33;;;;;;;10.93;7.27;;;;;;;;;;4935038;29;20484;-78
2021/07/23 04:15:01;;;;;;;7.30;6.57;;;;;;;;;;4929011;29;20471;-77
2021/07/23 04:17:29;;;;;;;9.40;7.30;;;;;;;;;;4930812;29;20451;-78
2021/07/23 04:19:56;;;;;;;8.70;6.80;;;;;;;;;;4931890;29;20447;-77
2021/07/23 04:22:23;;;;;;;8.30;6.67;;;;;;;;;;4932694;29;20476;-77
2021/07/23 04:24:51;;;;;;;7.03;6.23;;;;;;;;;;4916677;29;20438;-77
2021/07/23 04:27:18;;;;;;;7.97;6.70;;;;;;;;;;4915992;29;20444;-77
2021/07/23 04:29:47;;;;;;;9.00;7.07;;;;;;;;;;4926182;29;20425;-77
2021/07/23 04:32:14;;;;;;;7.37;6.17;;;;;;;;;;4932344;29;20962;-77
2021/07/23 04:34:43;;;;;;;9.07;6.70;;;;;;;;;;4930934;29;20477;-78
2021/07/23 04:37:10;;;;;;;8.67;6.60;;;;;;;;;;4934105;29;20827;-77
2021/07/23 04:39:37;;;;;;;6.97;6.27;;;;;;;;;;4926996;29;20594;-77
2021/07/23 04:42:05;;;;;;;8.47;6.80;;;;;;;;;;4930263;29;20494;-77
2021/07/23 04:44:33;;;;;;;9.60;7.10;;;;;;;;;;4935326;29;20458;-77
2021/07/23 04:47:01;;;;;;;7.63;6.67;;;;;;;;;;4914761;29;20474;-77
2021/07/23 04:49:28;;;;;;;6.33;5.60;;;;;;;;;;4932150;29;20513;-77
2021/07/23 04:51:57;;;;;;;8.53;6.63;;;;;;;;;;4934161;29;20798;-77
2021/07/23 04:54:24;;;;;;;8.40;6.00;;;;;;;;;;4932187;29;20459;-77
2021/07/23 04:56:53;;;;;;;9.53;6.93;;;;;;;;;;4934336;29;20421;-77
2021/07/23 04:59:20;;;;;;;7.50;6.40;;;;;;;;;;4933042;29;20466;-78
2021/07/23 05:01:47;;;;;;;7.37;6.37;;;;;;;;;;4934093;29;20433;-77
2021/07/23 05:04:15;;;;;;;6.77;6.10;;;;;;;;;;4927858;29;21177;-77
2021/07/23 05:06:42;;;;;;;7.10;6.40;;;;;;;;;;4928505;29;20449;-76
2021/07/23 05:09:10;;;;;;;8.40;6.03;;;;;;;;;;4933958;29;20835;-75
2021/07/23 05:11:37;;;;;;;6.53;5.93;;;;;;;;;;4925345;29;20455;-75
2021/07/23 05:14:06;;;;;;;7.93;6.40;;;;;;;;;;4922571;28;20491;-75
2021/07/23 05:16:35;;;;;;;8.23;6.50;;;;;;;;;;4941059;28;20447;-76
2021/07/23 05:19:02;;;;;;;10.03;7.00;;;;;;;;;;4932016;29;20959;-75
2021/07/23 05:21:30;;;;;;;8.47;7.20;;;;;;;;;;4898007;29;20467;-74
2021/07/23 05:24:03;;;;;;;7.33;6.63;;;;;;;;;;4900636;29;20879;-73
2021/07/23 05:26:32;;;;;;;7.10;6.23;;;;;;;;;;4919709;29;20467;-73
2021/07/23 05:28:59;;;;;;;7.00;5.70;;;;;;;;;;4938707;28;20485;-74
2021/07/23 05:31:26;;;;;;;9.93;6.33;;;;;;;;;;4952222;28;20449;-74
2021/07/23 05:33:53;;;;;;;7.50;5.27;;;;;;;;;;4933826;29;21027;-74
2021/07/23 05:36:20;;;;;;;7.30;5.73;;;;;;;;;;4933183;29;20450;-74
2021/07/23 05:38:48;;;;;;;6.70;5.70;;;;;;;;;;4927610;29;20825;-74
2021/07/23 05:41:15;;;;;;;6.30;5.67;;;;;;;;;;4931692;29;20483;-75
2021/07/23 05:43:43;;;;;;;6.47;5.87;;;;;;;;;;4929105;29;20466;-77
2021/07/23 05:46:10;;;;;;;6.20;5.23;;;;;;;;;;4920232;29;20831;-75
2021/07/23 05:48:38;;;;;;;6.80;6.20;;;;;;;;;;4914850;29;20613;-74
2021/07/23 05:51:05;;;;;;;6.20;4.97;;;;;;;;;;4923061;29;20462;-73
2021/07/23 05:53:32;;;;;;;6.43;5.40;;;;;;;;;;4908079;29;20482;-74
2021/07/23 05:56:00;;;;;;;5.50;5.00;;;;;;;;;;4931830;29;20463;-75
2021/07/23 05:58:27;;;;;;;6.20;5.33;;;;;;;;;;4916807;29;20471;-74
2021/07/23 06:00:56;;;;;;;9.00;6.00;;;;;;;;;;4925313;29;20439;-74
2021/07/23 06:03:23;;;;;;;6.33;4.70;;;;;;;;;;4929888;29;20447;-75
2021/07/23 06:05:50;;;;;;;6.20;5.57;;;;;;;;;;4931718;29;20461;-76
2021/07/23 06:08:18;;;;;;;6.10;4.80;;;;;;;;;;4922900;29;20872;-75
2021/07/23 06:10:45;;;;;;;6.37;5.60;;;;;;;;;;4932563;29;20445;-75
2021/07/23 06:13:12;;;;;;;6.07;5.03;;;;;;;;;;4929349;29;20625;-76
2021/07/23 06:15:39;;;;;;;6.23;5.60;;;;;;;;;;4924103;29;20979;-75
2021/07/23 06:18:07;;;;;;;10.13;6.40;;;;;;;;;;4928012;29;20468;-74
2021/07/23 06:20:35;;;;;;;5.67;5.03;;;;;;;;;;4932261;29;20829;-74
2021/07/23 06:23:02;;;;;;;7.87;6.37;;;;;;;;;;4913477;29;20440;-73
2021/07/23 06:25:29;;;;;;;7.93;5.63;;;;;;;;;;4915824;29;20463;-73
2021/07/23 06:27:56;;;;;;;5.90;5.20;;;;;;;;;;4919010;29;21015;-74
2021/07/23 06:30:23;;;;;;;8.70;6.40;;;;;;;;;;4928541;29;20473;-76
2021/07/23 06:32:50;;;;;;;7.57;6.47;;;;;;;;;;4926350;29;20474;-76
2021/07/23 06:35:19;;;;;;;11.67;6.43;;;;;;;;;;4926044;29;20470;-74
2021/07/23 06:37:46;;;;;;;7.63;5.80;;;;;;;;;;4925684;29;20977;-74
2021/07/23 06:40:14;;;;;;;8.77;6.90;;;;;;;;;;4929370;29;20505;-73
2021/07/23 06:42:42;;;;;;;8.30;7.50;;;;;;;;;;4930590;29;20473;-73
2021/07/23 06:45:10;;;;;;;6.20;5.40;;;;;;;;;;4926446;29;20458;-74
2021/07/23 06:47:38;;;;;;;5.33;4.83;;;;;;;;;;4933000;29;20552;-74
2021/07/23 06:50:06;;;;;;;6.83;5.90;;;;;;;;;;4917664;29;20844;-74
2021/07/23 06:52:35;;;;;;;6.00;5.40;;;;;;;;;;4928250;29;20463;-74
2021/07/23 06:55:02;;;;;;;5.93;5.33;;;;;;;;;;4935635;29;20446;-74
2021/07/23 06:57:33;;;;;;;5.13;4.70;;;;;;;;;;4918568;29;20489;-75
2021/07/23 07:00:00;;;;;;;5.90;5.27;;;;;;;;;;4932857;29;20470;-74
2021/07/23 07:02:27;;;;;;;8.10;5.23;;;;;;;;;;4933941;29;20820;-74
2021/07/23 07:04:55;;;;;;;4.73;4.30;;;;;;;;;;4926044;29;20453;-74
2021/07/23 07:07:22;;;;;;;6.07;5.47;;;;;;;;;;4921084;29;20464;-74
2021/07/23 07:09:51;;;;;;;6.03;5.43;;;;;;;;;;4935982;29;20568;-74
2021/07/23 07:12:18;;;;;;;6.30;5.70;;;;;;;;;;4934700;29;20473;-74
2021/07/23 07:14:46;;;;;;;6.03;5.40;;;;;;;;;;4937475;29;20866;-75
2021/07/23 07:17:13;;;;;;;5.70;5.17;;;;;;;;;;4935972;29;20458;-74
2021/07/23 07:19:40;;;;;;;6.13;4.97;;;;;;;;;;4936433;29;20445;-74
2021/07/23 07:22:07;;;;;;;7.40;6.70;;;;;;;;;;4930641;29;20450;-74
2021/07/23 07:24:34;;;;;;;5.43;4.93;;;;;;;;;;4938851;29;20454;-74
2021/07/23 07:27:03;;;;;;;7.43;6.40;;;;;;;;;;4938843;29;20588;-74
2021/07/23 07:29:30;;;;;;;6.80;5.77;;;;;;;;;;4935273;29;20471;-73
2021/07/23 07:31:57;;;;;;;6.80;6.10;;;;;;;;;;4936086;29;20453;-73
2021/07/23 07:34:25;;;;;;;9.13;7.10;;;;;;;;;;4938682;29;20497;-73
2021/07/23 07:36:52;;;;;;;8.60;6.17;;;;;;;;;;4925504;29;20490;-74
2021/07/23 07:39:19;;;;;;;6.73;5.67;;;;;;;;;;4939458;29;20484;-74
2021/07/23 07:41:46;;;;;;;5.80;5.27;;;;;;;;;;4928988;29;20466;-73
2021/07/23 07:44:15;;;;;;;7.67;5.70;;;;;;;;;;4937386;29;20462;-74
2021/07/23 07:46:42;;;;;;;8.57;6.10;;;;;;;;;;4936098;29;20457;-73
2021/07/23 07:49:09;;;;;;;7.00;5.80;;;;;;;;;;4921889;29;20483;-74
2021/07/23 07:51:36;;;;;;;6.60;5.60;;;;;;;;;;4920540;28;20546;-75
2021/07/23 07:54:04;;;;;;;5.83;5.17;;;;;;;;;;4945746;28;20499;-75
2021/07/23 07:56:31;;;;;;;8.23;6.50;;;;;;;;;;4937989;29;20443;-74
2021/07/23 07:58:58;;;;;;;6.33;5.67;;;;;;;;;;4936637;29;20848;-75
2021/07/23 08:01:26;;;;;;;6.60;5.70;;;;;;;;;;4934885;29;20473;-74
2021/07/23 08:03:54;;;;;;;6.43;5.00;;;;;;;;;;4933685;29;20443;-74
2021/07/23 08:06:22;;;;;;;7.13;6.27;;;;;;;;;;4928778;29;20813;-74
2021/07/23 08:08:51;;;;;;;7.13;6.40;;;;;;;;;;4922681;29;21136;-74
2021/07/23 08:11:18;;;;;;;7.60;5.70;;;;;;;;;;4928356;29;20546;-75
2021/07/23 08:13:45;;;;;;;5.97;5.40;;;;;;;;;;4917016;29;20475;-75
2021/07/23 08:16:13;;;;;;;6.33;5.77;;;;;;;;;;4946444;28;20895;-73
2021/07/23 08:18:42;;;;;;;6.40;5.80;;;;;;;;;;4924359;29;20891;-74
2021/07/23 08:21:09;;;;;;;8.67;6.90;;;;;;;;;;4931605;29;20458;-72
2021/07/23 08:23:37;;;;;;;7.43;5.83;;;;;;;;;;4912036;29;20466;-75
2021/07/23 08:26:05;;;;;;;6.63;5.57;;;;;;;;;;4934748;29;20936;-73
2021/07/23 08:28:33;;;;;;;7.77;6.23;;;;;;;;;;4919179;29;20467;-74
2021/07/23 08:31:00;;;;;;;6.60;5.47;;;;;;;;;;4928857;29;20466;-72
2021/07/23 08:33:28;;;;;;;6.93;6.23;;;;;;;;;;4930153;29;20485;-73
2021/07/23 08:35:56;;;;;;;9.27;7.10;;;;;;;;;;4928839;29;20498;-74
2021/07/23 08:38:24;;;;;;;7.97;6.90;;;;;;;;;;4928058;29;20472;-74
2021/07/23 08:40:51;;;;;;;9.83;5.70;;;;;;;;;;4925274;29;21033;-75
2021/07/23 08:43:18;;;;;;;8.20;5.80;;;;;;;;;;4932825;29;20453;-74
2021/07/23 08:45:45;;;;;;;7.50;6.50;;;;;;;;;;4937495;28;20959;-75
2021/07/23 08:48:13;;;;;;;9.13;7.07;;;;;;;;;;4936137;29;20493;-74
2021/07/23 08:50:40;;;;;;;6.63;6.03;;;;;;;;;;4932763;29;20441;-75
2021/07/23 08:53:11;;;;;;;8.80;7.80;;;;;;;;;;4918023;29;20466;-73
2021/07/23 08:55:39;;;;;;;7.47;6.50;;;;;;;;;;4933780;29;20968;-74
2021/07/23 08:58:08;;;;;;;9.60;7.50;;;;;;;;;;4932547;29;20471;-73
2021/07/23 09:00:35;;;;;;;8.30;7.40;;;;;;;;;;4921215;29;20497;-73
2021/07/23 09:03:03;;;;;;;6.83;5.80;;;;;;;;;;4932324;29;20815;-73
2021/07/23 09:05:31;;;;;;;7.30;5.97;;;;;;;;;;4911410;29;20506;-73
2021/07/23 09:08:00;;;;;;;8.57;5.63;;;;;;;;;;4916763;29;20467;-73
2021/07/23 09:10:29;;;;;;;6.80;6.10;;;;;;;;;;4931222;29;20463;-73
2021/07/23 09:12:59;;;;;;;7.63;6.50;;;;;;;;;;4917674;29;20458;-74
2021/07/23 09:15:27;;;;;;;13.00;7.07;;;;;;;;;;4925111;29;20534;-73
2021/07/23 09:17:55;;;;;;;6.90;6.00;;;;;;;;;;4912944;29;20477;-73
2021/07/23 09:20:23;;;;;;;10.20;9.20;;;;;;;;;;4924298;29;20462;-73
2021/07/23 09:22:50;;;;;;;7.77;6.63;;;;;;;;;;4920067;29;20461;-73
2021/07/23 09:25:32;;;;;;;12.30;6.83;;;;;;;;;;4920413;29;20480;-72
2021/07/23 09:28:01;;;;;;;8.13;7.33;;;;;;;;;;4917968;29;20474;-72
2021/07/23 09:30:42;;;;;;;7.83;6.67;;;;;;;;;;4926263;29;20467;-72
2021/07/23 09:33:10;;;;;;;9.30;7.30;;;;;;;;;;4931540;29;20490;-72
2021/07/23 09:35:37;;;;;;;9.87;8.53;;;;;;;;;;4915773;29;20443;-73
2021/07/23 09:38:04;;;;;;;10.43;7.67;;;;;;;;;;4929186;29;20486;-73
2021/07/23 09:40:49;;;;;;;10.93;9.50;;;;;;;;;;4933810;29;20529;-72
2021/07/23 09:43:30;;;;;;;8.07;7.27;;;;;;;;;;4919334;29;20471;-72
2021/07/23 09:45:57;;;;;;;9.73;7.30;;;;;;;;;;4917356;29;20447;-72
2021/07/23 09:48:24;;;;;;;8.60;7.70;;;;;;;;;;4908946;29;20994;-73
2021/07/23 09:50:52;;;;;;;11.90;9.27;;;;;;;;;;4929610;29;20949;-73
2021/07/23 09:53:20;;;;;;;9.40;8.00;;;;;;;;;;4922207;29;20831;-74
2021/07/23 09:55:48;;;;;;;8.80;7.37;;;;;;;;;;4922590;29;20463;-74
2021/07/23 09:58:20;;;;;;;9.30;7.40;;;;;;;;;;4915111;29;20496;-73
2021/07/23 10:00:53;;;;;;;8.03;7.20;;;;;;;;;;4915616;29;20439;-74
2021/07/23 10:03:22;;;;;;;8.20;7.37;;;;;;;;;;4914536;29;20925;-72
2021/07/23 10:05:51;;;;;;;10.93;7.77;;;;;;;;;;4931497;28;20453;-72
2021/07/23 10:08:22;;;;;;;8.97;8.03;;;;;;;;;;4926942;29;20474;-73
2021/07/23 10:10:51;;;;;;;9.13;7.23;;;;;;;;;;4935800;29;20534;-73
2021/07/23 10:13:20;;;;;;;10.13;7.30;;;;;;;;;;4920537;29;20490;-74
2021/07/23 10:15:48;;;;;;;9.47;7.60;;;;;;;;;;4932480;29;21990;-73
2021/07/23 10:18:16;;;;;;;8.93;8.03;;;;;;;;;;4928896;29;21080;-75
2021/07/23 10:20:45;;;;;;;10.67;9.57;;;;;;;;;;4924804;29;20506;-73
2021/07/23 10:23:12;;;;;;;11.97;10.13;;;;;;;;;;4932928;29;20446;-74
2021/07/23 10:25:39;;;;;;;10.60;9.00;;;;;;;;;;4919269;29;20459;-74
2021/07/23 10:28:06;;;;;;;10.90;9.10;;;;;;;;;;4915282;29;20498;-73
2021/07/23 10:30:34;;;;;;;8.93;7.40;;;;;;;;;;4925318;29;21222;-74
2021/07/23 10:33:02;;;;;;;8.57;7.13;;;;;;;;;;4909888;29;20469;-73
2021/07/23 10:35:32;;;;;;;8.30;6.90;;;;;;;;;;4921316;29;20478;-73
2021/07/23 10:37:59;;;;;;;10.70;8.07;;;;;;;;;;4917072;29;20515;-72
2021/07/23 10:40:35;;;;;;;8.70;7.63;;;;;;;;;;4923856;29;20843;-73
2021/07/23 10:43:02;;;;;;;8.53;7.17;;;;;;;;;;4927022;29;20472;-74
2021/07/23 10:45:44;;;;;;;10.47;8.23;;;;;;;;;;4913430;29;20451;-74
2021/07/23 10:48:31;;;;;;;8.90;8.00;;;;;;;;;;4915129;29;20844;-73
2021/07/23 10:51:00;;;;;;;10.00;8.83;;;;;;;;;;4911318;29;20949;-74
2021/07/23 10:53:34;;;;;;;9.80;7.63;;;;;;;;;;4914925;29;20455;-74
2021/07/23 10:56:02;;;;;;;8.67;7.80;;;;;;;;;;4912988;29;20467;-74
2021/07/23 10:58:32;;;;;;;11.37;7.70;;;;;;;;;;4905434;29;20486;-74
2021/07/23 11:01:01;;;;;;;11.13;8.37;;;;;;;;;;4908613;29;20805;-73
2021/07/23 11:03:43;;;;;;;12.77;9.93;;;;;;;;;;4931140;29;20511;-74
2021/07/23 11:06:15;;;;;;;9.30;8.10;;;;;;;;;;4925803;29;20481;-73
2021/07/23 11:08:45;;;;;;;8.33;7.30;;;;;;;;;;4923962;29;20459;-74
2021/07/23 11:11:13;;;;;;;10.53;7.27;;;;;;;;;;4931091;29;20454;-74
2021/07/23 11:13:40;;;;;;;9.27;8.20;;;;;;;;;;4928004;29;20450;-75
2021/07/23 11:16:09;;;;;;;7.90;7.10;;;;;;;;;;4921169;28;20825;-75
2021/07/23 11:18:36;;;;;;;11.60;9.23;;;;;;;;;;4930169;28;20472;-73
2021/07/23 11:21:04;;;;;;;10.00;8.47;;;;;;;;;;4940113;29;20437;-73
2021/07/23 11:23:33;;;;;;;9.23;8.20;;;;;;;;;;4933170;29;20908;-73
2021/07/23 11:26:01;;;;;;;11.53;9.23;;;;;;;;;;4926915;29;20465;-73
2021/07/23 11:28:29;;;;;;;10.60;8.80;;;;;;;;;;4931262;29;20462;-74
2021/07/23 11:30:56;;;;;;;9.57;8.23;;;;;;;;;;4923475;29;20554;-73
2021/07/23 11:33:29;;;;;;;8.80;7.90;;;;;;;;;;4936326;29;20442;-74
2021/07/23 11:35:56;;;;;;;7.97;6.53;;;;;;;;;;4909235;29;20486;-73
2021/07/23 11:38:23;;;;;;;10.77;8.33;;;;;;;;;;4934779;29;20490;-74
2021/07/23 11:41:05;;;;;;;10.07;7.80;;;;;;;;;;4937266;29;20470;-74
2021/07/23 11:43:32;;;;;;;10.13;8.80;;;;;;;;;;4928159;29;20466;-73
2021/07/23 11:45:59;;;;;;;9.80;7.53;;;;;;;;;;4932871;29;20443;-74
2021/07/23 11:48:27;;;;;;;8.80;7.90;;;;;;;;;;4934047;29;20470;-73
2021/07/23 11:50:55;;;;;;;9.87;8.87;;;;;;;;;;4928556;29;20964;-75
2021/07/23 11:53:22;;;;;;;9.20;7.83;;;;;;;;;;4909286;29;20477;-74
2021/07/23 11:55:49;;;;;;;9.00;7.87;;;;;;;;;;4930787;29;20508;-74
2021/07/23 11:58:26;;;;;;;8.33;7.00;;;;;;;;;;4929459;29;21018;-74
2021/07/23 12:00:54;;;;;;;10.87;8.97;;;;;;;;;;4913370;29;20462;-74
2021/07/23 12:03:21;;;;;;;13.40;8.73;;;;;;;;;;4920867;29;20450;-73
2021/07/23 12:05:49;;;;;;;9.77;8.23;;;;;;;;;;4947685;29;20468;-73
2021/07/23 12:08:17;;;;;;;11.90;10.20;;;;;;;;;;4935819;29;20486;-74
2021/07/23 12:10:44;;;;;;;11.20;9.00;;;;;;;;;;4935643;29;20447;-73
2021/07/23 12:13:13;;;;;;;9.37;8.43;;;;;;;;;;4930836;29;20549;-72
2021/07/23 12:15:44;;;;;;;9.70;8.27;;;;;;;;;;4941502;29;20489;-74
2021/07/23 12:18:16;;;;;;;10.77;9.67;;;;;;;;;;4935003;29;20513;-73
2021/07/23 12:20:43;;;;;;;7.80;7.10;;;;;;;;;;4920356;29;20443;-75
2021/07/23 12:23:10;;;;;;;11.60;7.73;;;;;;;;;;4930563;29;20469;-76
2021/07/23 12:25:43;;;;;;;10.60;7.80;;;;;;;;;;4935319;29;20541;-76
2021/07/23 12:28:12;;;;;;;11.97;8.50;;;;;;;;;;4924990;29;20475;-78
2021/07/23 12:30:40;;;;;;;10.73;9.37;;;;;;;;;;4910844;29;20538;-77
2021/07/23 12:33:14;;;;;;;9.30;8.07;;;;;;;;;;4923974;29;20469;-73
2021/07/23 12:35:41;;;;;;;8.30;7.50;;;;;;;;;;4928538;29;20493;-73
2021/07/23 12:38:09;;;;;;;9.33;8.40;;;;;;;;;;4923694;29;20483;-75
2021/07/23 12:40:43;;;;;;;10.23;9.13;;;;;;;;;;4919360;29;20482;-74
2021/07/23 12:43:12;;;;;;;12.10;8.40;;;;;;;;;;4933463;29;20819;-75
2021/07/23 12:45:39;;;;;;;9.00;8.10;;;;;;;;;;4928915;29;20956;-75
2021/07/23 12:48:10;;;;;;;9.87;8.53;;;;;;;;;;4921689;29;20478;-75
2021/07/23 12:50:39;;;;;;;10.07;8.63;;;;;;;;;;4925964;29;20447;-75
2021/07/23 12:53:07;;;;;;;9.30;8.30;;;;;;;;;;4923560;29;20456;-75
2021/07/23 12:55:34;;;;;;;11.70;9.77;;;;;;;;;;4919129;29;20487;-74
2021/07/23 12:58:01;;;;;;;10.60;9.50;;;;;;;;;;4932324;29;20482;-73
2021/07/23 13:00:28;;;;;;;9.93;8.60;;;;;;;;;;4930980;29;20454;-74
2021/07/23 13:02:57;;;;;;;13.20;9.37;;;;;;;;;;4933153;29;20482;-74
2021/07/23 13:05:26;;;;;;;9.97;8.97;;;;;;;;;;4930868;29;21236;-74
2021/07/23 13:07:55;;;;;;;10.60;7.90;;;;;;;;;;4915099;29;21000;-74
2021/07/23 13:10:23;;;;;;;10.53;8.30;;;;;;;;;;4923354;28;20541;-73
2021/07/23 13:12:51;;;;;;;10.93;8.97;;;;;;;;;;4931553;29;20446;-74
2021/07/23 13:15:19;;;;;;;10.33;9.27;;;;;;;;;;4932567;29;20490;-76
2021/07/23 13:17:47;;;;;;;11.50;7.93;;;;;;;;;;4926597;28;20485;-73
2021/07/23 13:20:14;;;;;;;11.10;7.60;;;;;;;;;;4929246;29;20521;-73
2021/07/23 13:22:41;;;;;;;9.50;8.50;;;;;;;;;;4934693;29;20935;-76
2021/07/23 13:25:10;;;;;;;10.80;7.83;;;;;;;;;;4932195;29;20562;-75
2021/07/23 13:27:38;;;;;;;13.50;8.97;;;;;;;;;;4931169;29;20509;-74
2021/07/23 13:30:06;;;;;;;10.13;7.90;;;;;;;;;;4926289;29;20466;-75
2021/07/23 13:32:33;;;;;;;10.20;9.20;;;;;;;;;;4928490;29;20510;-75
2021/07/23 13:35:00;;;;;;;10.07;8.37;;;;;;;;;;4942121;29;20898;-74
2021/07/23 13:37:32;;;;;;;10.67;9.37;;;;;;;;;;4933364;29;20466;-73
2021/07/23 13:40:02;;;;;;;8.67;7.77;;;;;;;;;;4928651;29;20501;-74
2021/07/23 13:42:32;;;;;;;8.50;7.70;;;;;;;;;;4927865;29;20494;-74
2021/07/23 13:45:01;;;;;;;10.63;8.23;;;;;;;;;;4933190;29;20804;-74
2021/07/23 13:47:28;;;;;;;8.07;7.20;;;;;;;;;;4935184;29;20500;-74
2021/07/23 13:49:56;;;;;;;11.00;7.70;;;;;;;;;;4933683;29;20447;-75
2021/07/23 13:52:23;;;;;;;8.30;7.57;;;;;;;;;;4931566;29;21742;-76
2021/07/23 13:54:50;;;;;;;9.50;8.60;;;;;;;;;;4934405;29;20466;-74
2021/07/23 13:57:17;;;;;;;8.13;7.33;;;;;;;;;;4935199;29;20453;-75
2021/07/23 13:59:46;;;;;;;8.23;7.33;;;;;;;;;;4933908;29;20473;-75
2021/07/23 14:02:13;;;;;;;7.90;6.83;;;;;;;;;;4933328;29;20454;-74
2021/07/23 14:04:42;;;;;;;8.33;7.37;;;;;;;;;;4926563;29;20978;-75
2021/07/23 14:07:10;;;;;;;8.27;7.47;;;;;;;;;;4930620;29;20451;-74
2021/07/23 14:09:37;;;;;;;8.10;6.97;;;;;;;;;;4932041;29;20569;-74
2021/07/23 14:12:05;;;;;;;9.07;7.80;;;;;;;;;;4933484;29;20462;-74
2021/07/23 14:14:32;;;;;;;9.10;7.40;;;;;;;;;;4932140;29;20526;-74
2021/07/23 14:17:00;;;;;;;8.23;7.30;;;;;;;;;;4929142;29;20497;-74
2021/07/23 14:19:28;;;;;;;8.40;6.57;;;;;;;;;;4935517;29;20477;-75
2021/07/23 14:21:55;;;;;;;8.07;7.10;;;;;;;;;;4933980;29;20458;-75
2021/07/23 14:24:22;;;;;;;7.80;7.03;;;;;;;;;;4930576;29;20461;-74
2021/07/23 14:26:49;;;;;;;7.70;6.73;;;;;;;;;;4928705;29;20831;-74
2021/07/23 14:29:16;;;;;;;10.17;7.00;;;;;;;;;;4931884;29;20462;-74
2021/07/23 14:31:43;;;;;;;7.73;7.00;;;;;;;;;;4923842;29;20449;-74
2021/07/23 14:34:12;;;;;;;6.93;6.30;;;;;;;;;;4930480;29;20557;-74
2021/07/23 14:36:39;;;;;;;8.70;6.57;;;;;;;;;;4923181;29;20498;-74
2021/07/23 14:39:06;;;;;;;7.83;6.63;;;;;;;;;;4919450;29;21026;-75
2021/07/23 14:41:33;;;;;;;6.73;6.03;;;;;;;;;;4928176;29;20470;-75
2021/07/23 14:44:01;;;;;;;8.60;6.60;;;;;;;;;;4929861;29;20459;-75
2021/07/23 14:46:28;;;;;;;8.37;7.33;;;;;;;;;;4931371;29;20477;-74